Time;durP1;ratioP1;P1;durP2;ratioP2;P2;SDS_P1;SDS_P2;PMS_P1;PMS_P2;Temp;Humidity;BMP_temperature;BMP_pressure;BME280_temperature;BME280_humidity;BME280_pressure;Samples;Min_cycle;Max_cycle;Signal;HPM_P1;HPM_P2
2022/01/10 00:01:55;;;;;;;;;53.50;42.50;;;;;;;;5091371;27;45419;-64
2022/01/10 00:04:20;;;;;;;;;47.75;40.25;;;;;;;;5060768;27;45567;-64
2022/01/10 00:06:45;;;;;;;;;58.25;48.25;;;;;;;;5083944;27;45479;-64
2022/01/10 00:09:10;;;;;;;;;56.50;47.00;;;;;;;;5079373;27;46077;-64
2022/01/10 00:11:36;;;;;;;;;60.25;48.00;;;;;;;;5072648;27;45518;-65
2022/01/10 00:14:01;;;;;;;;;56.25;46.00;;;;;;;;5089255;27;45677;-63
2022/01/10 00:16:26;;;;;;;;;54.25;45.25;;;;;;;;5074340;27;45340;-64
2022/01/10 00:18:51;;;;;;;;;53.25;44.50;;;;;;;;5090764;27;47728;-64
2022/01/10 00:21:17;;;;;;;;;52.50;45.75;;;;;;;;5056338;28;45914;-63
2022/01/10 00:23:42;;;;;;;;;56.50;46.00;;;;;;;;5072320;28;45442;-63
2022/01/10 00:26:08;;;;;;;;;55.25;46.25;;;;;;;;5072535;28;45902;-63
2022/01/10 00:28:33;;;;;;;;;58.50;48.75;;;;;;;;5070379;28;45605;-65
2022/01/10 00:30:58;;;;;;;;;58.00;48.00;;;;;;;;5076164;28;45583;-64
2022/01/10 00:33:24;;;;;;;;;47.50;43.00;;;;;;;;5056936;28;45555;-63
2022/01/10 00:35:49;;;;;;;;;58.50;48.75;;;;;;;;5072907;28;48087;-63
2022/01/10 00:38:14;;;;;;;;;61.00;50.50;;;;;;;;5056308;28;48269;-65
2022/01/10 00:40:40;;;;;;;;;59.75;49.25;;;;;;;;5063592;28;45485;-64
2022/01/10 00:43:05;;;;;;;;;55.00;45.00;;;;;;;;5074765;28;45979;-64
2022/01/10 00:45:31;;;;;;;;;57.50;48.00;;;;;;;;5070829;28;45287;-63
2022/01/10 00:47:57;;;;;;;;;62.75;52.00;;;;;;;;5051463;28;46785;-63
2022/01/10 00:50:24;;;;;;;;;61.25;51.00;;;;;;;;5072448;28;45510;-64
2022/01/10 00:52:49;;;;;;;;;61.25;52.25;;;;;;;;5057742;28;45401;-64
2022/01/10 00:55:15;;;;;;;;;66.00;52.50;;;;;;;;5074758;28;45405;-64
2022/01/10 00:57:40;;;;;;;;;70.75;57.00;;;;;;;;5088836;27;46476;-64
2022/01/10 01:00:07;;;;;;;;;67.00;55.00;;;;;;;;5056720;28;45396;-64
2022/01/10 01:02:32;;;;;;;;;62.50;52.75;;;;;;;;5072343;28;45364;-64
2022/01/10 01:05:01;;;;;;;;;63.75;52.25;;;;;;;;5072155;27;45411;-64
2022/01/10 01:07:27;;;;;;;;;69.50;55.75;;;;;;;;5072854;28;45630;-64
2022/01/10 01:10:04;;;;;;;;;61.50;49.25;;;;;;;;5068405;28;45387;-64
2022/01/10 01:13:07;;;;;;;;;62.50;53.00;;;;;;;;5074049;28;45496;-63
2022/01/10 01:15:29;;;;;;;;;60.75;51.50;;;;;;;;5068561;28;45490;-64
2022/01/10 01:25:52;;;;;;;;;63.75;53.00;;;;;;;;5057375;28;45430;-63
2022/01/10 01:28:17;;;;;;;;;65.50;51.50;;;;;;;;5073749;28;45593;-64
2022/01/10 01:30:43;;;;;;;;;63.25;52.75;;;;;;;;5088754;27;45351;-64
2022/01/10 01:33:08;;;;;;;;;64.25;53.00;;;;;;;;5055455;28;45514;-64
2022/01/10 01:35:35;;;;;;;;;64.25;51.50;;;;;;;;5054895;28;45785;-64
2022/01/10 01:38:00;;;;;;;;;64.25;53.25;;;;;;;;5065167;28;45968;-64
2022/01/10 01:40:28;;;;;;;;;60.50;50.50;;;;;;;;5072802;28;45456;-64
2022/01/10 01:42:54;;;;;;;;;60.50;51.50;;;;;;;;5074503;28;45404;-64
2022/01/10 01:45:34;;;;;;;;;62.75;52.00;;;;;;;;5054300;28;45484;-64
2022/01/10 01:47:59;;;;;;;;;61.25;50.50;;;;;;;;5071780;28;45712;-64
2022/01/10 01:50:24;;;;;;;;;61.75;50.00;;;;;;;;5072337;28;45765;-64
2022/01/10 01:52:49;;;;;;;;;55.50;47.50;;;;;;;;5072833;28;45504;-64
2022/01/10 01:55:15;;;;;;;;;58.25;47.75;;;;;;;;5055968;28;45488;-64
2022/01/10 01:57:40;;;;;;;;;60.00;50.00;;;;;;;;5074358;28;46687;-63
2022/01/10 02:00:06;;;;;;;;;62.00;52.75;;;;;;;;5055878;28;45502;-63
2022/01/10 02:02:31;;;;;;;;;74.00;54.25;;;;;;;;5074494;28;45492;-64
2022/01/10 02:04:57;;;;;;;;;61.75;51.00;;;;;;;;5074439;28;45401;-63
2022/01/10 02:07:22;;;;;;;;;69.75;56.50;;;;;;;;5074202;28;45408;-63
2022/01/10 02:09:47;;;;;;;;;70.75;55.75;;;;;;;;5056438;28;45464;-63
2022/01/10 02:12:13;;;;;;;;;67.75;53.50;;;;;;;;5074032;28;47656;-63
2022/01/10 02:14:40;;;;;;;;;64.25;52.75;;;;;;;;5054479;28;45551;-64
2022/01/10 02:17:05;;;;;;;;;68.00;52.50;;;;;;;;5072092;28;46443;-64
2022/01/10 02:19:30;;;;;;;;;65.25;52.25;;;;;;;;5072679;28;45334;-63
2022/01/10 02:21:56;;;;;;;;;56.50;45.50;;;;;;;;5053553;28;45342;-63
2022/01/10 02:24:23;;;;;;;;;71.75;55.25;;;;;;;;5087881;27;45477;-64
2022/01/10 02:26:49;;;;;;;;;71.00;53.75;;;;;;;;5053120;28;47352;-63
2022/01/10 02:29:14;;;;;;;;;65.00;54.25;;;;;;;;5072468;28;45353;-64
2022/01/10 02:31:40;;;;;;;;;67.50;52.25;;;;;;;;5073882;28;45441;-64
2022/01/10 02:34:06;;;;;;;;;62.75;52.75;;;;;;;;5074210;27;45400;-63
2022/01/10 02:36:31;;;;;;;;;67.50;54.00;;;;;;;;5054299;28;47691;-64
2022/01/10 02:38:58;;;;;;;;;65.25;54.00;;;;;;;;5072226;28;45590;-64
2022/01/10 02:41:24;;;;;;;;;69.75;53.75;;;;;;;;5071968;28;45483;-64
2022/01/10 02:43:50;;;;;;;;;65.25;52.00;;;;;;;;5073271;28;45797;-64
2022/01/10 02:46:15;;;;;;;;;57.25;48.00;;;;;;;;5055486;28;47460;-64
2022/01/10 02:48:41;;;;;;;;;64.25;52.75;;;;;;;;5055828;28;45700;-64
2022/01/10 02:51:06;;;;;;;;;63.75;51.25;;;;;;;;5072173;28;45538;-64
2022/01/10 02:53:31;;;;;;;;;60.25;50.00;;;;;;;;5071853;28;46108;-64
2022/01/10 02:55:57;;;;;;;;;57.75;47.50;;;;;;;;5072440;28;45815;-65
2022/01/10 02:58:22;;;;;;;;;55.50;47.75;;;;;;;;5072953;28;45624;-64
2022/01/10 03:00:47;;;;;;;;;62.25;52.25;;;;;;;;5067203;28;45365;-64
2022/01/10 03:03:12;;;;;;;;;62.25;51.75;;;;;;;;5088201;27;45517;-64
2022/01/10 03:05:37;;;;;;;;;64.75;52.00;;;;;;;;5072658;28;46657;-63
2022/01/10 03:08:03;;;;;;;;;63.25;48.50;;;;;;;;5072531;28;45369;-63
2022/01/10 03:10:29;;;;;;;;;62.50;51.25;;;;;;;;5054506;28;45376;-63
2022/01/10 03:12:54;;;;;;;;;60.25;49.00;;;;;;;;5073459;28;45516;-63
2022/01/10 03:15:19;;;;;;;;;59.00;49.00;;;;;;;;5072220;28;46171;-63
2022/01/10 03:17:45;;;;;;;;;58.00;48.50;;;;;;;;5072540;27;45494;-64
2022/01/10 03:20:10;;;;;;;;;64.00;53.75;;;;;;;;5072831;28;45443;-63
2022/01/10 03:22:35;;;;;;;;;62.75;51.75;;;;;;;;5073132;28;45595;-63
2022/01/10 03:25:01;;;;;;;;;59.75;51.25;;;;;;;;5073513;28;45755;-63
2022/01/10 03:27:26;;;;;;;;;58.00;47.00;;;;;;;;5054051;28;45483;-63
2022/01/10 03:29:52;;;;;;;;;64.75;52.50;;;;;;;;5054400;28;45435;-66
2022/01/10 03:32:17;;;;;;;;;65.00;51.50;;;;;;;;5072230;28;45413;-63
2022/01/10 03:34:43;;;;;;;;;68.00;52.75;;;;;;;;5075220;28;46294;-64
2022/01/10 03:37:08;;;;;;;;;61.00;51.00;;;;;;;;5075994;28;45545;-64
2022/01/10 03:39:35;;;;;;;;;59.75;47.00;;;;;;;;5076186;28;45381;-64
2022/01/10 03:42:00;;;;;;;;;67.75;53.50;;;;;;;;5075855;28;45341;-63
2022/01/10 03:44:25;;;;;;;;;66.75;54.00;;;;;;;;5076091;28;45743;-65
2022/01/10 03:46:51;;;;;;;;;65.75;53.25;;;;;;;;5058046;28;46233;-64
2022/01/10 03:49:16;;;;;;;;;64.25;53.50;;;;;;;;5076678;28;45393;-65
2022/01/10 03:51:42;;;;;;;;;68.25;55.75;;;;;;;;5077097;28;45436;-64
2022/01/10 03:54:07;;;;;;;;;61.75;51.25;;;;;;;;5075989;28;46059;-63
2022/01/10 03:56:33;;;;;;;;;63.25;52.75;;;;;;;;5076161;28;45384;-64
2022/01/10 03:58:59;;;;;;;;;65.75;54.00;;;;;;;;5076179;28;45413;-63
2022/01/10 04:01:24;;;;;;;;;66.00;55.25;;;;;;;;5075593;28;45571;-64
2022/01/10 04:03:52;;;;;;;;;60.75;49.25;;;;;;;;5091694;27;48397;-64
2022/01/10 04:06:17;;;;;;;;;56.00;46.50;;;;;;;;5075129;28;45490;-64
2022/01/10 04:08:42;;;;;;;;;62.50;51.25;;;;;;;;5057284;28;45693;-63
2022/01/10 04:11:07;;;;;;;;;65.75;54.25;;;;;;;;5075455;28;45542;-63
2022/01/10 04:13:33;;;;;;;;;66.00;54.75;;;;;;;;5091087;27;47391;-63
2022/01/10 04:15:58;;;;;;;;;66.50;55.25;;;;;;;;5076136;28;45461;-63
2022/01/10 04:18:23;;;;;;;;;64.00;53.50;;;;;;;;5075234;28;45492;-63
2022/01/10 04:20:49;;;;;;;;;66.00;53.00;;;;;;;;5075494;28;45496;-64
2022/01/10 04:23:15;;;;;;;;;67.25;55.75;;;;;;;;5074998;28;46322;-64
2022/01/10 04:25:40;;;;;;;;;64.50;52.25;;;;;;;;5075345;28;45487;-63
2022/01/10 04:28:06;;;;;;;;;61.50;50.50;;;;;;;;5075728;28;45313;-63
2022/01/10 04:30:31;;;;;;;;;62.50;52.25;;;;;;;;5091428;27;45589;-64
2022/01/10 04:32:58;;;;;;;;;64.00;54.00;;;;;;;;5075273;28;46064;-64
2022/01/10 04:35:24;;;;;;;;;70.00;56.00;;;;;;;;5056630;28;45562;-63
2022/01/10 04:37:49;;;;;;;;;63.50;51.50;;;;;;;;5075125;28;45425;-64
2022/01/10 04:40:14;;;;;;;;;62.00;51.00;;;;;;;;5056856;27;45472;-64
2022/01/10 04:42:39;;;;;;;;;62.00;52.00;;;;;;;;5075619;28;45551;-64
2022/01/10 04:45:05;;;;;;;;;66.50;55.00;;;;;;;;5073603;28;45402;-64
2022/01/10 04:47:30;;;;;;;;;74.00;55.75;;;;;;;;5056586;28;45431;-64
2022/01/10 04:52:27;;;;;;;;;66.00;52.75;;;;;;;;5074701;28;45640;-64
2022/01/10 04:54:52;;;;;;;;;63.50;52.25;;;;;;;;5075356;28;45364;-64
2022/01/10 04:57:17;;;;;;;;;62.50;52.25;;;;;;;;5074765;28;45359;-64
2022/01/10 04:59:42;;;;;;;;;60.25;49.25;;;;;;;;5074771;28;45798;-63
2022/01/10 05:02:08;;;;;;;;;66.50;54.00;;;;;;;;5074649;28;45411;-63
2022/01/10 05:04:33;;;;;;;;;64.25;51.25;;;;;;;;5056510;28;45368;-64
2022/01/10 05:06:58;;;;;;;;;65.50;52.50;;;;;;;;5075507;28;45428;-64
2022/01/10 05:09:23;;;;;;;;;63.00;52.50;;;;;;;;5056197;28;45522;-64
2022/01/10 05:11:49;;;;;;;;;61.00;49.75;;;;;;;;5074741;28;46076;-64
2022/01/10 05:14:14;;;;;;;;;67.00;55.25;;;;;;;;5074478;28;45480;-64
2022/01/10 05:16:40;;;;;;;;;66.75;54.25;;;;;;;;5056530;28;45502;-64
2022/01/10 05:19:06;;;;;;;;;69.75;56.00;;;;;;;;5075060;28;45453;-64
2022/01/10 05:21:31;;;;;;;;;67.50;55.00;;;;;;;;5074842;28;45662;-64
2022/01/10 05:23:56;;;;;;;;;65.25;52.50;;;;;;;;5090285;27;45584;-64
2022/01/10 05:26:22;;;;;;;;;70.00;56.00;;;;;;;;5074249;28;45353;-64
2022/01/10 05:28:47;;;;;;;;;65.50;53.50;;;;;;;;5074438;28;45455;-65
2022/01/10 05:31:12;;;;;;;;;60.50;49.75;;;;;;;;5056158;28;48039;-65
2022/01/10 05:33:37;;;;;;;;;71.00;56.25;;;;;;;;5074658;28;45457;-65
2022/01/10 05:36:03;;;;;;;;;67.25;52.75;;;;;;;;5074489;28;45827;-64
2022/01/10 05:38:28;;;;;;;;;70.50;56.75;;;;;;;;5074097;28;45376;-64
2022/01/10 05:40:53;;;;;;;;;65.25;54.00;;;;;;;;5054545;28;47449;-63
2022/01/10 05:43:19;;;;;;;;;68.50;55.50;;;;;;;;5072277;28;45368;-63
2022/01/10 05:45:45;;;;;;;;;66.25;56.00;;;;;;;;5090318;27;45481;-64
2022/01/10 05:48:13;;;;;;;;;64.50;54.25;;;;;;;;5055613;28;45389;-65
2022/01/10 05:50:41;;;;;;;;;63.00;53.00;;;;;;;;5073045;28;46429;-64
2022/01/10 05:53:07;;;;;;;;;67.75;56.00;;;;;;;;5055218;28;46473;-64
2022/01/10 05:55:34;;;;;;;;;69.25;56.50;;;;;;;;5073942;28;45582;-64
2022/01/10 05:57:59;;;;;;;;;70.75;55.50;;;;;;;;5069295;28;45414;-64
2022/01/10 06:00:25;;;;;;;;;65.25;54.50;;;;;;;;5054397;28;48597;-63
2022/01/10 06:02:50;;;;;;;;;67.50;56.75;;;;;;;;5073283;28;45500;-65
2022/01/10 06:05:15;;;;;;;;;67.25;55.00;;;;;;;;5054812;28;45545;-65
2022/01/10 06:07:41;;;;;;;;;69.50;56.25;;;;;;;;5054596;28;45623;-65
2022/01/10 06:10:08;;;;;;;;;68.50;57.25;;;;;;;;5073194;28;45457;-65
2022/01/10 06:12:33;;;;;;;;;72.50;58.00;;;;;;;;5073522;28;45383;-66
2022/01/10 06:14:58;;;;;;;;;67.25;54.00;;;;;;;;5073822;28;45530;-65
2022/01/10 06:17:23;;;;;;;;;66.25;56.00;;;;;;;;5072830;28;45462;-64
2022/01/10 06:19:48;;;;;;;;;75.00;58.00;;;;;;;;5072806;28;47844;-64
2022/01/10 06:22:14;;;;;;;;;70.00;57.00;;;;;;;;5073856;28;45336;-63
2022/01/10 06:24:39;;;;;;;;;73.00;59.00;;;;;;;;5074261;28;45358;-62
2022/01/10 06:27:04;;;;;;;;;71.50;58.00;;;;;;;;5073356;28;45465;-63
2022/01/10 06:29:30;;;;;;;;;72.50;57.50;;;;;;;;5073086;28;45571;-62
2022/01/10 06:31:55;;;;;;;;;67.25;55.25;;;;;;;;5073412;28;45340;-62
2022/01/10 06:34:20;;;;;;;;;68.50;56.75;;;;;;;;5055108;28;47999;-63
2022/01/10 06:36:46;;;;;;;;;73.75;58.25;;;;;;;;5074148;28;45445;-65
2022/01/10 06:39:11;;;;;;;;;75.75;60.50;;;;;;;;5073370;28;46111;-64
2022/01/10 06:41:36;;;;;;;;;74.00;59.75;;;;;;;;5071842;28;45587;-63
2022/01/10 06:44:02;;;;;;;;;69.50;57.25;;;;;;;;5051289;28;45512;-63
2022/01/10 06:46:27;;;;;;;;;75.25;59.00;;;;;;;;5073021;28;45391;-62
2022/01/10 06:48:52;;;;;;;;;76.50;60.00;;;;;;;;5061328;28;46916;-64
2022/01/10 06:51:17;;;;;;;;;68.75;56.25;;;;;;;;5048456;28;46050;-64
2022/01/10 06:53:43;;;;;;;;;73.25;60.75;;;;;;;;5084471;27;45724;-63
2022/01/10 06:56:08;;;;;;;;;70.25;56.50;;;;;;;;5068863;28;45390;-64
2022/01/10 06:58:33;;;;;;;;;72.75;58.00;;;;;;;;5068774;28;46654;-63
2022/01/10 07:00:59;;;;;;;;;74.00;58.50;;;;;;;;5070301;28;45513;-64
2022/01/10 07:03:24;;;;;;;;;70.00;54.50;;;;;;;;5053599;28;45484;-64
2022/01/10 07:05:49;;;;;;;;;67.25;54.50;;;;;;;;5051579;28;45560;-64
2022/01/10 07:08:14;;;;;;;;;73.00;56.50;;;;;;;;5072210;28;45407;-64
2022/01/10 07:10:40;;;;;;;;;70.00;55.00;;;;;;;;5076614;28;45345;-64
2022/01/10 07:13:05;;;;;;;;;73.00;57.25;;;;;;;;5058173;27;45450;-63
2022/01/10 07:15:31;;;;;;;;;69.50;55.25;;;;;;;;5076030;28;45842;-64
2022/01/10 07:17:56;;;;;;;;;66.50;55.00;;;;;;;;5075631;28;46324;-65
2022/01/10 07:20:21;;;;;;;;;64.75;52.00;;;;;;;;5057079;28;45734;-66
2022/01/10 07:22:47;;;;;;;;;72.00;57.75;;;;;;;;5057321;28;45534;-65
2022/01/10 07:25:12;;;;;;;;;72.25;57.00;;;;;;;;5054901;28;45341;-63
2022/01/10 07:27:37;;;;;;;;;68.75;56.50;;;;;;;;5091982;27;47595;-64
2022/01/10 07:30:04;;;;;;;;;69.50;56.75;;;;;;;;5057161;28;45310;-64
2022/01/10 07:32:30;;;;;;;;;66.75;54.25;;;;;;;;5075797;28;45468;-63
2022/01/10 07:34:55;;;;;;;;;67.00;51.00;;;;;;;;5076134;28;45508;-64
2022/01/10 07:37:20;;;;;;;;;64.25;52.75;;;;;;;;5075006;27;45591;-64
2022/01/10 07:39:46;;;;;;;;;71.25;56.25;;;;;;;;5075411;28;45342;-66
2022/01/10 07:42:11;;;;;;;;;69.50;53.75;;;;;;;;5075660;28;45378;-64
2022/01/10 07:44:36;;;;;;;;;67.50;53.75;;;;;;;;5075413;28;45507;-65
2022/01/10 07:47:02;;;;;;;;;66.75;53.25;;;;;;;;5075723;28;45992;-64
2022/01/10 07:49:27;;;;;;;;;65.75;53.50;;;;;;;;5075605;28;45519;-64
2022/01/10 07:51:53;;;;;;;;;62.00;50.50;;;;;;;;5075439;28;45460;-64
2022/01/10 07:54:18;;;;;;;;;61.25;51.00;;;;;;;;5073951;28;45600;-65
2022/01/10 07:56:43;;;;;;;;;64.25;50.00;;;;;;;;5074488;28;46001;-64
2022/01/10 07:59:09;;;;;;;;;61.75;50.75;;;;;;;;5056530;28;45800;-64
2022/01/10 08:01:34;;;;;;;;;63.25;51.25;;;;;;;;5074042;28;45444;-64
2022/01/10 08:03:59;;;;;;;;;55.25;46.25;;;;;;;;5076832;28;45393;-64
2022/01/10 08:06:24;;;;;;;;;59.75;49.00;;;;;;;;5074675;28;45324;-64
2022/01/10 08:08:50;;;;;;;;;62.25;49.75;;;;;;;;5075373;28;45491;-64
2022/01/10 08:11:15;;;;;;;;;68.00;52.75;;;;;;;;5075779;28;45340;-64
2022/01/10 08:13:43;;;;;;;;;49.75;40.75;;;;;;;;5075777;28;45565;-64
2022/01/10 08:16:08;;;;;;;;;61.75;49.50;;;;;;;;5056258;28;47800;-63
2022/01/10 08:18:35;;;;;;;;;70.25;54.00;;;;;;;;5057778;28;45424;-63
2022/01/10 08:21:01;;;;;;;;;71.50;53.50;;;;;;;;5055677;28;45515;-64
2022/01/10 08:23:26;;;;;;;;;70.00;54.50;;;;;;;;5068490;28;45492;-64
2022/01/10 08:25:51;;;;;;;;;62.00;51.50;;;;;;;;5075417;28;46563;-63
2022/01/10 08:28:17;;;;;;;;;66.00;51.75;;;;;;;;5074957;28;46234;-64
2022/01/10 08:30:42;;;;;;;;;70.50;54.25;;;;;;;;5091426;27;45398;-64
2022/01/10 08:33:07;;;;;;;;;68.75;52.50;;;;;;;;5057266;28;45623;-63
2022/01/10 08:35:34;;;;;;;;;67.00;51.50;;;;;;;;5074979;28;46291;-66
2022/01/10 08:37:59;;;;;;;;;54.75;45.50;;;;;;;;5056845;28;45838;-63
2022/01/10 08:40:25;;;;;;;;;66.25;49.50;;;;;;;;5074828;28;45336;-65
2022/01/10 08:42:50;;;;;;;;;56.25;45.50;;;;;;;;5076074;28;45519;-63
2022/01/10 08:45:15;;;;;;;;;61.00;47.50;;;;;;;;5073904;28;46022;-64
2022/01/10 08:47:41;;;;;;;;;60.00;47.00;;;;;;;;5056897;28;45512;-63
2022/01/10 08:50:07;;;;;;;;;51.50;42.75;;;;;;;;5056318;28;45393;-64
2022/01/10 08:52:32;;;;;;;;;56.50;45.00;;;;;;;;5075052;28;45815;-63
2022/01/10 08:54:58;;;;;;;;;58.50;43.50;;;;;;;;5075654;28;45646;-63
2022/01/10 08:57:24;;;;;;;;;58.75;45.25;;;;;;;;5056146;28;45491;-64
2022/01/10 08:59:50;;;;;;;;;57.25;45.00;;;;;;;;5056446;28;46040;-64
2022/01/10 09:02:15;;;;;;;;;53.00;40.25;;;;;;;;5055410;28;45527;-64
2022/01/10 09:04:40;;;;;;;;;45.75;41.25;;;;;;;;5074967;28;45535;-64
2022/01/10 09:07:08;;;;;;;;;57.50;45.00;;;;;;;;5075338;28;45897;-63
2022/01/10 09:09:33;;;;;;;;;49.00;40.00;;;;;;;;5090901;27;45419;-63
2022/01/10 09:11:59;;;;;;;;;54.75;44.50;;;;;;;;5068368;28;45448;-63
2022/01/10 09:14:24;;;;;;;;;40.50;35.25;;;;;;;;5073548;28;45610;-64
2022/01/10 09:16:49;;;;;;;;;48.25;40.25;;;;;;;;5074372;28;45485;-63
2022/01/10 09:19:14;;;;;;;;;43.25;38.25;;;;;;;;5056139;27;45344;-64
2022/01/10 09:21:40;;;;;;;;;32.00;26.25;;;;;;;;5075213;28;45344;-63
2022/01/10 09:24:06;;;;;;;;;35.75;30.75;;;;;;;;5074700;28;45983;-63
2022/01/10 09:26:31;;;;;;;;;29.25;29.25;;;;;;;;5074579;28;45477;-63
2022/01/10 09:28:56;;;;;;;;;34.50;28.50;;;;;;;;5074404;28;45535;-63
2022/01/10 09:31:22;;;;;;;;;28.75;28.00;;;;;;;;5054695;28;45375;-63
2022/01/10 09:33:54;;;;;;;;;29.50;29.25;;;;;;;;5075019;28;45783;-63
2022/01/10 09:36:20;;;;;;;;;35.75;29.25;;;;;;;;5074086;28;45536;-64
2022/01/10 09:38:46;;;;;;;;;29.00;28.50;;;;;;;;5074266;28;45464;-63
2022/01/10 09:41:11;;;;;;;;;39.00;36.25;;;;;;;;5074142;28;45456;-63
2022/01/10 09:43:36;;;;;;;;;42.25;37.75;;;;;;;;5074397;28;45464;-64
2022/01/10 09:46:02;;;;;;;;;44.75;38.75;;;;;;;;5056048;28;45492;-64
2022/01/10 09:48:27;;;;;;;;;37.75;36.25;;;;;;;;5055910;28;45558;-64
2022/01/10 09:50:52;;;;;;;;;41.50;36.75;;;;;;;;5055441;28;45496;-64
2022/01/10 09:53:18;;;;;;;;;34.25;31.00;;;;;;;;5055599;28;47887;-64
2022/01/10 09:55:44;;;;;;;;;40.75;31.50;;;;;;;;5074095;28;45563;-64
2022/01/10 09:58:09;;;;;;;;;44.50;34.50;;;;;;;;5074156;28;45427;-64
2022/01/10 10:00:35;;;;;;;;;49.00;39.75;;;;;;;;5073889;28;45597;-63
2022/01/10 10:03:00;;;;;;;;;41.00;37.00;;;;;;;;5072983;28;46252;-64
2022/01/10 10:05:25;;;;;;;;;41.50;38.75;;;;;;;;5054082;28;46366;-63
2022/01/10 10:07:51;;;;;;;;;47.75;38.75;;;;;;;;5054761;28;45491;-62
2022/01/10 10:10:17;;;;;;;;;48.50;40.75;;;;;;;;5073736;28;45365;-64
2022/01/10 10:12:43;;;;;;;;;37.00;34.75;;;;;;;;5073952;28;45824;-63
2022/01/10 10:15:11;;;;;;;;;38.50;37.25;;;;;;;;5054550;28;46104;-64
2022/01/10 10:17:37;;;;;;;;;46.25;37.00;;;;;;;;5071931;28;45473;-63
2022/01/10 10:20:10;;;;;;;;;46.50;38.00;;;;;;;;5055132;28;45648;-63
2022/01/10 10:22:38;;;;;;;;;40.75;36.50;;;;;;;;5070703;28;47351;-65
2022/01/10 10:25:04;;;;;;;;;42.75;33.75;;;;;;;;5071684;28;45384;-62
2022/01/10 10:27:34;;;;;;;;;36.00;32.25;;;;;;;;5054401;28;45561;-64
2022/01/10 10:30:01;;;;;;;;;35.75;34.75;;;;;;;;5073062;28;45419;-63
2022/01/10 10:32:29;;;;;;;;;40.75;36.50;;;;;;;;5073813;28;46766;-63
2022/01/10 10:34:58;;;;;;;;;41.00;36.50;;;;;;;;5073311;28;45461;-64
2022/01/10 10:37:25;;;;;;;;;45.75;39.50;;;;;;;;5073389;27;45503;-63
2022/01/10 10:39:51;;;;;;;;;46.50;39.50;;;;;;;;5087165;27;45555;-64
2022/01/10 10:42:16;;;;;;;;;47.00;38.25;;;;;;;;5053996;28;48344;-62
2022/01/10 10:44:43;;;;;;;;;41.25;37.25;;;;;;;;5054012;28;45520;-63
2022/01/10 10:47:08;;;;;;;;;41.75;37.75;;;;;;;;5073154;28;45401;-64
2022/01/10 10:49:38;;;;;;;;;43.00;35.75;;;;;;;;5055350;28;45587;-63
2022/01/10 10:52:05;;;;;;;;;50.50;41.00;;;;;;;;5069335;28;45702;-63
2022/01/10 10:54:32;;;;;;;;;43.50;39.00;;;;;;;;5072093;28;45523;-63
2022/01/10 10:57:01;;;;;;;;;41.75;36.25;;;;;;;;5072594;28;45381;-63
2022/01/10 10:59:30;;;;;;;;;52.50;42.00;;;;;;;;5054648;28;45503;-64
2022/01/10 11:01:56;;;;;;;;;47.00;39.25;;;;;;;;5088500;27;47822;-64
2022/01/10 11:04:22;;;;;;;;;50.00;42.00;;;;;;;;5061143;28;45562;-63
2022/01/10 11:06:47;;;;;;;;;46.25;40.75;;;;;;;;5071657;28;45439;-63
2022/01/10 11:09:14;;;;;;;;;44.00;39.75;;;;;;;;5073253;28;45381;-63
2022/01/10 11:11:40;;;;;;;;;45.75;39.00;;;;;;;;5068608;28;45806;-63
2022/01/10 11:14:06;;;;;;;;;39.75;37.00;;;;;;;;5067010;28;45586;-64
2022/01/10 11:16:35;;;;;;;;;41.00;37.25;;;;;;;;5065663;28;45602;-63
2022/01/10 11:19:00;;;;;;;;;51.50;42.00;;;;;;;;5050144;27;46000;-64
2022/01/10 11:21:25;;;;;;;;;35.00;31.75;;;;;;;;5049507;27;47920;-63
2022/01/10 11:23:52;;;;;;;;;47.75;41.00;;;;;;;;5049316;28;45704;-65
2022/01/10 11:26:17;;;;;;;;;41.00;38.25;;;;;;;;5051115;28;45571;-64
2022/01/10 11:28:54;;;;;;;;;38.50;28.00;;;;;;;;5085289;27;45488;-64
2022/01/10 11:31:22;;;;;;;;;38.50;34.25;;;;;;;;5057093;27;47883;-64
2022/01/10 11:33:47;;;;;;;;;34.00;29.75;;;;;;;;5055585;27;45520;-64
2022/01/10 11:36:13;;;;;;;;;39.75;37.00;;;;;;;;5058809;28;45486;-63
2022/01/10 11:38:41;;;;;;;;;39.00;34.00;;;;;;;;5052052;28;45428;-63
2022/01/10 11:41:11;;;;;;;;;43.25;38.75;;;;;;;;5064486;27;45731;-62
2022/01/10 11:43:49;;;;;;;;;41.50;37.25;;;;;;;;5061950;28;45434;-64
2022/01/10 11:46:19;;;;;;;;;37.00;34.75;;;;;;;;5067331;28;45553;-64
2022/01/10 11:48:55;;;;;;;;;46.00;39.00;;;;;;;;5085044;27;45421;-63
2022/01/10 11:51:41;;;;;;;;;52.75;43.75;;;;;;;;5054383;28;48963;-63
2022/01/10 11:54:17;;;;;;;;;54.50;44.00;;;;;;;;5056557;27;45751;-64
2022/01/10 11:56:47;;;;;;;;;41.25;39.00;;;;;;;;5055862;28;45803;-63
2022/01/10 11:59:15;;;;;;;;;55.25;42.00;;;;;;;;5059684;27;45568;-64
2022/01/10 12:01:42;;;;;;;;;50.25;42.00;;;;;;;;5066795;28;47740;-63
2022/01/10 12:04:08;;;;;;;;;53.75;44.00;;;;;;;;5078563;27;45400;-64
2022/01/10 12:06:33;;;;;;;;;55.00;44.00;;;;;;;;5077607;27;45389;-65
2022/01/10 12:08:59;;;;;;;;;46.00;39.00;;;;;;;;5057046;28;45468;-65
2022/01/10 12:11:25;;;;;;;;;48.25;39.50;;;;;;;;5065632;27;48435;-64
2022/01/10 12:13:52;;;;;;;;;57.75;45.25;;;;;;;;5067612;27;45531;-63
2022/01/10 12:16:18;;;;;;;;;44.00;39.50;;;;;;;;5069335;27;46133;-63
2022/01/10 12:18:43;;;;;;;;;57.25;43.75;;;;;;;;5051416;28;45502;-64
2022/01/10 12:21:08;;;;;;;;;44.00;39.00;;;;;;;;5065489;27;46299;-63
2022/01/10 12:23:33;;;;;;;;;46.25;39.75;;;;;;;;5079252;27;45541;-62
2022/01/10 12:25:59;;;;;;;;;56.50;44.00;;;;;;;;5081858;27;45479;-63
2022/01/10 12:28:27;;;;;;;;;37.25;35.00;;;;;;;;5081791;27;45381;-62
2022/01/10 12:30:52;;;;;;;;;50.75;42.00;;;;;;;;5086214;27;46465;-62
2022/01/10 12:33:18;;;;;;;;;46.75;39.25;;;;;;;;5071640;27;45381;-62
2022/01/10 12:35:43;;;;;;;;;41.50;36.00;;;;;;;;5075553;27;45546;-63
2022/01/10 12:38:08;;;;;;;;;39.00;36.00;;;;;;;;5056432;28;45617;-62
2022/01/10 12:40:34;;;;;;;;;49.50;40.75;;;;;;;;5095726;27;47399;-64
2022/01/10 12:42:59;;;;;;;;;51.25;42.00;;;;;;;;5090931;27;45343;-63
2022/01/10 12:45:24;;;;;;;;;57.50;46.00;;;;;;;;5054905;27;45630;-63
2022/01/10 12:47:50;;;;;;;;;52.50;41.25;;;;;;;;5074989;27;45546;-63
2022/01/10 12:50:15;;;;;;;;;49.50;41.00;;;;;;;;5046050;28;48985;-63
2022/01/10 12:52:41;;;;;;;;;50.25;41.75;;;;;;;;5081061;27;45388;-63
2022/01/10 12:55:07;;;;;;;;;44.00;37.75;;;;;;;;5087381;27;45509;-63
2022/01/10 12:57:32;;;;;;;;;44.50;39.00;;;;;;;;5077197;27;45482;-62
2022/01/10 12:59:59;;;;;;;;;53.75;42.00;;;;;;;;5082689;27;46441;-63
2022/01/10 13:02:24;;;;;;;;;51.00;42.25;;;;;;;;5077157;27;45456;-62
2022/01/10 13:04:50;;;;;;;;;54.50;43.50;;;;;;;;5063395;28;45523;-63
2022/01/10 13:07:15;;;;;;;;;51.25;40.75;;;;;;;;5055817;27;45429;-62
2022/01/10 13:09:41;;;;;;;;;51.25;41.00;;;;;;;;5050402;27;47579;-63
2022/01/10 13:12:24;;;;;;;;;53.00;43.00;;;;;;;;5078819;27;45452;-62
2022/01/10 13:14:50;;;;;;;;;54.00;43.50;;;;;;;;5061923;28;45478;-63
2022/01/10 13:17:20;;;;;;;;;55.25;44.25;;;;;;;;5079060;27;45537;-63
2022/01/10 13:19:45;;;;;;;;;43.25;39.50;;;;;;;;5085815;27;45444;-63
2022/01/10 13:22:14;;;;;;;;;47.50;40.75;;;;;;;;5093811;27;45314;-63
2022/01/10 13:24:47;;;;;;;;;53.25;45.00;;;;;;;;5058747;28;45555;-63
2022/01/10 13:27:16;;;;;;;;;52.25;40.50;;;;;;;;5069787;27;45487;-63
2022/01/10 13:29:45;;;;;;;;;41.00;37.00;;;;;;;;5066941;27;47946;-63
2022/01/10 13:32:23;;;;;;;;;44.25;40.00;;;;;;;;5082837;27;45548;-63
2022/01/10 13:34:50;;;;;;;;;54.50;42.50;;;;;;;;5069271;27;45463;-63
2022/01/10 13:37:26;;;;;;;;;47.50;41.00;;;;;;;;5089805;27;45455;-63
2022/01/10 13:40:18;;;;;;;;;60.00;45.75;;;;;;;;5061942;27;46725;-62
2022/01/10 13:43:04;;;;;;;;;44.00;40.50;;;;;;;;4992986;28;45520;-64
2022/01/10 13:45:51;;;;;;;;;50.00;42.75;;;;;;;;4971011;28;45477;-64
2022/01/10 13:48:16;;;;;;;;;43.25;38.50;;;;;;;;4994617;28;45470;-62
2022/01/10 13:50:44;;;;;;;;;44.25;39.00;;;;;;;;4997960;28;46479;-63
2022/01/10 13:53:13;;;;;;;;;53.00;43.50;;;;;;;;4997609;28;45502;-64
2022/01/10 13:55:40;;;;;;;;;52.25;41.00;;;;;;;;4989903;28;45521;-64
2022/01/10 13:58:07;;;;;;;;;51.25;39.50;;;;;;;;4980881;28;45502;-64
2022/01/10 14:00:33;;;;;;;;;45.25;39.25;;;;;;;;4985789;28;47976;-63
2022/01/10 14:02:58;;;;;;;;;42.25;39.50;;;;;;;;4975814;28;45489;-63
2022/01/10 14:05:26;;;;;;;;;43.00;38.50;;;;;;;;4992058;28;46305;-63
2022/01/10 14:07:52;;;;;;;;;42.00;36.50;;;;;;;;4971611;28;46134;-64
2022/01/10 14:10:17;;;;;;;;;40.25;36.50;;;;;;;;4977574;28;46487;-63
2022/01/10 14:12:42;;;;;;;;;51.00;40.50;;;;;;;;4997510;28;46554;-64
2022/01/10 14:15:08;;;;;;;;;41.25;36.50;;;;;;;;4994361;28;45617;-64
2022/01/10 14:17:33;;;;;;;;;55.00;42.50;;;;;;;;4994533;28;45534;-63
2022/01/10 14:19:58;;;;;;;;;49.75;40.50;;;;;;;;5038403;28;48643;-63
2022/01/10 14:22:24;;;;;;;;;56.50;40.50;;;;;;;;5080053;27;45575;-63